createdAt,value
2018-09-08T00:00:13.104Z,72.70
2018-09-08T00:02:41.585Z,72.50
2018-09-08T00:05:10.059Z,72.30
2018-09-08T00:07:39.280Z,73.10
2018-09-08T00:10:09.845Z,73.60
2018-09-08T00:12:38.366Z,74.20
2018-09-08T00:15:11.994Z,74.70
2018-09-08T00:17:45.908Z,75.00
2018-09-08T00:20:19.633Z,75.30
2018-09-08T00:22:53.607Z,75.50
2018-09-08T00:25:27.405Z,76.00
2018-09-08T00:28:00.144Z,76.50
2018-09-08T00:30:28.649Z,76.70
2018-09-08T00:32:57.126Z,76.70
2018-09-08T00:35:25.576Z,77.10
2018-09-08T00:37:54.017Z,77.30
2018-09-08T00:40:22.513Z,77.80
2018-09-08T00:42:50.962Z,78.10
2018-09-08T00:45:19.473Z,78.20
2018-09-08T00:47:47.949Z,78.40
2018-09-08T00:50:16.457Z,78.30
2018-09-08T00:52:44.989Z,78.20
2018-09-08T00:55:13.450Z,78.20
2018-09-08T00:57:41.922Z,78.20
2018-09-08T01:00:10.380Z,78.20
2018-09-08T01:02:38.927Z,78.30
2018-09-08T01:05:07.404Z,78.40
2018-09-08T01:07:35.896Z,78.40
2018-09-08T01:10:04.382Z,78.60
2018-09-08T01:12:32.857Z,79.00
2018-09-08T01:15:01.679Z,78.80
2018-09-08T01:17:30.141Z,78.70
2018-09-08T01:19:58.577Z,78.50
2018-09-08T01:22:27.550Z,78.40
2018-09-08T01:24:56.025Z,78.30
2018-09-08T01:27:24.529Z,78.40
2018-09-08T01:29:52.981Z,78.50
2018-09-08T01:32:21.430Z,78.70
2018-09-08T01:34:50.853Z,79.40
2018-09-08T01:37:19.333Z,79.90
2018-09-08T01:39:47.799Z,80.00
2018-09-08T01:42:16.259Z,80.00
2018-09-08T01:44:44.813Z,80.20
2018-09-08T01:47:13.280Z,80.20
2018-09-08T01:49:41.757Z,80.20
2018-09-08T01:52:10.236Z,80.30
2018-09-08T01:54:38.787Z,80.90
2018-09-08T01:57:07.328Z,80.00
2018-09-08T01:59:35.796Z,80.10
2018-09-08T02:02:04.282Z,80.40
2018-09-08T02:04:32.822Z,80.40
2018-09-08T02:07:01.276Z,80.80
2018-09-08T02:09:29.709Z,81.00
2018-09-08T02:11:58.210Z,81.30
2018-09-08T02:14:26.735Z,81.60
2018-09-08T02:16:55.215Z,81.80
2018-09-08T02:19:23.668Z,81.80
2018-09-08T02:21:52.110Z,82.20
2018-09-08T02:24:20.575Z,82.50
2018-09-08T02:26:49.028Z,82.40
2018-09-08T02:29:17.454Z,82.50
2018-09-08T02:31:45.912Z,82.70
2018-09-08T02:34:14.394Z,82.90
2018-09-08T02:36:42.912Z,83.10
2018-09-08T02:39:11.366Z,83.20
2018-09-08T02:41:39.812Z,83.20
2018-09-08T02:44:08.665Z,83.50
2018-09-08T02:46:37.109Z,83.70
2018-09-08T02:49:05.903Z,83.90
2018-09-08T02:51:33.226Z,84.00
2018-09-08T02:54:00.565Z,84.10
2018-09-08T02:56:27.889Z,84.00
2018-09-08T02:58:55.220Z,84.10
2018-09-08T03:01:22.567Z,84.20
2018-09-08T03:03:49.933Z,84.30
2018-09-08T03:06:17.270Z,84.30
2018-09-08T03:08:44.621Z,84.90
2018-09-08T03:11:11.941Z,84.60
2018-09-08T03:13:39.292Z,84.50
2018-09-08T03:16:06.799Z,84.50
2018-09-08T03:18:34.157Z,84.40
2018-09-08T03:21:01.517Z,84.40
2018-09-08T03:23:28.855Z,85.20
2018-09-08T03:25:56.238Z,84.60
2018-09-08T03:28:23.562Z,84.50
2018-09-08T03:30:50.908Z,84.60
2018-09-08T03:33:18.261Z,84.60
2018-09-08T03:35:45.598Z,84.70
2018-09-08T03:38:12.955Z,84.80
2018-09-08T03:40:40.280Z,85.00
2018-09-08T03:43:07.610Z,85.10
2018-09-08T03:45:34.945Z,85.30
2018-09-08T03:48:02.286Z,85.50
2018-09-08T03:50:29.619Z,85.70
2018-09-08T03:52:56.982Z,85.80
2018-09-08T03:55:24.328Z,85.80
2018-09-08T03:57:51.671Z,85.70
2018-09-08T04:00:19.025Z,85.70
2018-09-08T04:02:47.481Z,85.80
2018-09-08T04:05:15.893Z,85.90
2018-09-08T04:07:44.344Z,86.10
2018-09-08T04:10:12.756Z,86.10
2018-09-08T04:12:41.293Z,86.10
2018-09-08T04:15:09.750Z,86.20
2018-09-08T04:17:38.174Z,86.40
2018-09-08T04:20:06.698Z,86.50
2018-09-08T04:22:35.949Z,86.60
2018-09-08T04:25:05.922Z,86.60
2018-09-08T04:27:34.365Z,87.30
2018-09-08T04:30:02.842Z,86.60
2018-09-08T04:32:31.378Z,86.60
2018-09-08T04:34:59.822Z,86.50
2018-09-08T04:37:28.280Z,86.20
2018-09-08T04:39:56.723Z,86.10
2018-09-08T04:42:25.233Z,86.00
2018-09-08T04:44:53.695Z,86.00
2018-09-08T04:47:22.131Z,86.00
2018-09-08T04:49:50.541Z,86.10
2018-09-08T04:52:18.975Z,86.40
2018-09-08T04:54:47.548Z,86.70
2018-09-08T04:57:16.013Z,86.60
2018-09-08T04:59:44.482Z,86.40
2018-09-08T05:02:12.893Z,86.40
2018-09-08T05:04:41.396Z,86.50
2018-09-08T05:07:09.847Z,86.40
2018-09-08T05:09:38.250Z,86.20
2018-09-08T05:12:06.702Z,86.40
2018-09-08T05:14:35.189Z,85.90
2018-09-08T05:17:03.685Z,86.00
2018-09-08T05:19:32.109Z,85.90
2018-09-08T05:22:00.599Z,85.80
2018-09-08T05:24:29.037Z,85.50
2018-09-08T05:26:57.501Z,85.40
2018-09-08T05:29:25.956Z,85.50
2018-09-08T05:31:54.381Z,85.50
2018-09-08T05:34:22.844Z,85.80
2018-09-08T05:36:51.267Z,86.00
2018-09-08T05:39:19.722Z,86.20
2018-09-08T05:41:48.184Z,86.30
2018-09-08T05:44:16.655Z,86.80
2018-09-08T05:46:45.234Z,87.30
2018-09-08T05:49:13.683Z,87.60
2018-09-08T05:51:42.085Z,87.90
2018-09-08T05:54:10.616Z,88.20
2018-09-08T05:56:39.101Z,88.70
2018-09-08T05:59:07.526Z,89.10
2018-09-08T06:01:35.977Z,89.30
2018-09-08T06:04:04.512Z,89.50
2018-09-08T06:06:32.943Z,89.60
2018-09-08T06:09:01.391Z,89.90
2018-09-08T06:11:29.818Z,90.00
2018-09-08T06:13:58.332Z,90.20
2018-09-08T06:16:26.775Z,90.20
2018-09-08T06:18:55.214Z,90.20
2018-09-08T06:21:23.675Z,90.10
2018-09-08T06:23:52.155Z,90.10
2018-09-08T06:26:20.600Z,90.10
2018-09-08T06:28:49.042Z,90.10
2018-09-08T06:31:17.485Z,90.10
2018-09-08T06:33:46.097Z,90.10
2018-09-08T06:36:14.497Z,90.00
2018-09-08T06:38:42.942Z,90.00
2018-09-08T06:41:11.363Z,89.80
2018-09-08T06:43:39.845Z,89.80
2018-09-08T06:46:08.317Z,89.80
2018-09-08T06:48:36.789Z,89.80
2018-09-08T06:51:05.502Z,90.10
2018-09-08T06:53:33.949Z,90.10
2018-09-08T06:56:02.383Z,90.00
2018-09-08T06:58:30.831Z,90.00
2018-09-08T07:00:59.333Z,90.00
2018-09-08T07:03:27.893Z,90.00
2018-09-08T07:05:56.279Z,89.60
2018-09-08T07:08:24.758Z,88.90
2018-09-08T07:10:53.235Z,87.90
2018-09-08T07:13:21.685Z,87.00
2018-09-08T07:15:50.121Z,86.10
2018-09-08T07:18:18.601Z,85.20
2018-09-08T07:20:47.026Z,84.20
2018-09-08T07:23:15.530Z,83.70
2018-09-08T07:25:43.969Z,83.70
2018-09-08T07:28:12.369Z,83.30
2018-09-08T07:30:40.826Z,82.60
2018-09-08T07:33:09.371Z,82.60
2018-09-08T07:35:37.817Z,82.50
2018-09-08T07:38:06.408Z,82.30
2018-09-08T07:40:34.899Z,81.90
2018-09-08T07:43:03.406Z,81.40
2018-09-08T07:45:38.080Z,81.40
2018-09-08T07:48:06.663Z,82.10
2018-09-08T07:50:35.183Z,82.30
2018-09-08T07:53:03.653Z,81.90
2018-09-08T07:55:32.133Z,81.60
2018-09-08T07:58:00.894Z,81.60
2018-09-08T08:00:29.382Z,81.10
2018-09-08T08:02:57.964Z,80.80
2018-09-08T08:05:26.385Z,80.70
2018-09-08T08:07:54.848Z,80.90
2018-09-08T08:10:23.311Z,80.70
2018-09-08T08:12:51.802Z,80.60
2018-09-08T08:15:21.214Z,80.10
2018-09-08T08:17:49.646Z,79.90
2018-09-08T08:20:18.097Z,79.40
2018-09-08T08:22:46.581Z,79.40
2018-09-08T08:25:15.106Z,79.50
2018-09-08T08:27:43.624Z,79.00
2018-09-08T08:30:12.045Z,78.10
2018-09-08T08:32:40.486Z,76.60
2018-09-08T08:35:08.959Z,75.90
2018-09-08T08:37:37.481Z,74.80
2018-09-08T08:40:05.938Z,74.10
2018-09-08T08:42:34.461Z,75.00
2018-09-08T08:45:03.030Z,74.30
2018-09-08T08:47:31.502Z,74.40
2018-09-08T08:50:11.271Z,74.70
2018-09-08T08:52:50.920Z,75.00
2018-09-08T08:55:19.349Z,75.20
2018-09-08T08:57:47.781Z,76.70
2018-09-08T09:00:16.529Z,76.00
2018-09-08T09:02:45.080Z,76.00
2018-09-08T09:05:13.555Z,75.80
2018-09-08T09:07:42.150Z,75.90
2018-09-08T09:10:10.713Z,76.30
2018-09-08T09:12:39.242Z,75.90
2018-09-08T09:15:08.032Z,75.40
2018-09-08T09:17:37.110Z,75.40
2018-09-08T09:20:16.906Z,75.20
2018-09-08T09:22:56.542Z,74.80
2018-09-08T09:25:24.994Z,75.00
2018-09-08T09:27:53.414Z,75.50
2018-09-08T09:30:22.339Z,75.20
2018-09-08T09:32:50.847Z,75.10
2018-09-08T09:35:20.534Z,74.50
2018-09-08T09:37:48.996Z,72.50
2018-09-08T09:40:18.590Z,71.50
2018-09-08T09:42:47.017Z,70.80
2018-09-08T09:45:15.502Z,70.50
2018-09-08T09:47:43.947Z,70.90
2018-09-08T09:50:13.161Z,70.20
2018-09-08T09:52:41.881Z,70.70
2018-09-08T09:55:10.453Z,69.80
2018-09-08T09:57:39.009Z,68.20
2018-09-08T10:00:08.922Z,67.00
2018-09-08T10:02:45.613Z,66.20
2018-09-08T10:05:16.647Z,66.10
2018-09-08T10:07:45.301Z,66.50
2018-09-08T10:10:15.022Z,66.50
2018-09-08T10:12:43.596Z,66.40
2018-09-08T10:15:12.057Z,66.10
2018-09-08T10:17:41.414Z,66.10
2018-09-08T10:20:11.549Z,66.50
2018-09-08T10:22:40.096Z,66.30
2018-09-08T10:25:10.369Z,66.50
2018-09-08T10:27:38.814Z,65.90
2018-09-08T10:30:08.490Z,65.90
2018-09-08T10:32:36.985Z,66.50
2018-09-08T10:35:05.491Z,65.60
2018-09-08T10:37:33.915Z,64.80
2018-09-08T10:40:02.377Z,64.20
2018-09-08T10:42:31.012Z,63.90
2018-09-08T10:44:59.471Z,63.80
2018-09-08T10:47:27.955Z,63.40
2018-09-08T10:49:56.422Z,63.70
2018-09-08T10:52:41.666Z,62.20
2018-09-08T10:55:10.081Z,62.90
2018-09-08T10:57:38.517Z,61.40
2018-09-08T11:00:07.616Z,60.70
2018-09-08T11:02:36.371Z,60.60
2018-09-08T11:05:04.775Z,61.00
2018-09-08T11:07:33.226Z,60.80
2018-09-08T11:10:01.699Z,61.50
2018-09-08T11:12:30.549Z,61.10
2018-09-08T11:14:58.984Z,61.00
2018-09-08T11:17:27.428Z,60.40
2018-09-08T11:19:55.881Z,60.80
2018-09-08T11:22:24.440Z,61.30
2018-09-08T11:24:52.875Z,62.40
2018-09-08T11:27:21.307Z,62.10
2018-09-08T11:29:49.762Z,61.70
2018-09-08T11:32:18.196Z,62.80
2018-09-08T11:34:46.667Z,61.90
2018-09-08T11:37:15.102Z,62.20
2018-09-08T11:39:43.598Z,63.10
2018-09-08T11:42:12.023Z,63.50
2018-09-08T11:44:40.594Z,63.40
2018-09-08T11:47:09.063Z,62.00
2018-09-08T11:49:37.510Z,61.00
2018-09-08T11:52:06.074Z,60.90
2018-09-08T11:54:34.671Z,61.70
2018-09-08T11:57:03.147Z,62.00
2018-09-08T11:59:31.663Z,62.40
2018-09-08T12:02:00.147Z,62.70
2018-09-08T12:04:28.656Z,63.20
2018-09-08T12:06:57.115Z,63.70
2018-09-08T12:09:25.529Z,64.20
2018-09-08T12:11:53.942Z,64.40
2018-09-08T12:14:22.407Z,64.30
2018-09-08T12:16:50.865Z,64.50
2018-09-08T12:19:19.300Z,64.10
2018-09-08T12:21:47.763Z,63.70
2018-09-08T12:24:16.252Z,64.10
2018-09-08T12:26:44.766Z,64.20
2018-09-08T12:29:13.198Z,64.30
2018-09-08T12:31:41.650Z,64.10
2018-09-08T12:34:10.186Z,63.60
2018-09-08T12:36:38.621Z,63.70
2018-09-08T12:39:07.879Z,64.30
2018-09-08T12:41:36.371Z,64.90
2018-09-08T12:44:04.835Z,66.10
2018-09-08T12:46:33.274Z,66.20
2018-09-08T12:49:01.721Z,66.70
2018-09-08T12:51:30.150Z,66.20
2018-09-08T12:53:58.622Z,65.80
2018-09-08T12:56:27.094Z,66.50
2018-09-08T12:58:55.582Z,67.00
2018-09-08T13:01:24.089Z,66.90
2018-09-08T13:03:52.571Z,65.70
2018-09-08T13:06:21.003Z,66.00
2018-09-08T13:08:49.446Z,66.20
2018-09-08T13:11:17.873Z,66.50
2018-09-08T13:13:46.394Z,67.00
2018-09-08T13:16:14.909Z,67.20
2018-09-08T13:18:43.445Z,68.00
2018-09-08T13:21:11.918Z,68.20
2018-09-08T13:23:40.549Z,68.40
2018-09-08T13:26:09.196Z,69.20
2018-09-08T13:28:37.712Z,69.10
2018-09-08T13:31:06.210Z,69.10
2018-09-08T13:33:34.840Z,69.40
2018-09-08T13:36:03.306Z,68.70
2018-09-08T13:38:31.984Z,68.50
2018-09-08T13:41:00.495Z,68.60
2018-09-08T13:43:29.039Z,68.90
2018-09-08T13:45:57.515Z,68.50
2018-09-08T13:48:25.940Z,68.30
2018-09-08T13:50:54.381Z,67.80
2018-09-08T13:53:22.842Z,67.40
2018-09-08T13:55:51.303Z,67.40
2018-09-08T13:58:19.766Z,67.40
2018-09-08T14:00:48.227Z,67.30
2018-09-08T14:03:16.761Z,66.70
2018-09-08T14:05:45.226Z,66.40
2018-09-08T14:08:15.547Z,66.10
2018-09-08T14:10:44.933Z,65.40
2018-09-08T14:13:13.465Z,65.10
2018-09-08T14:15:41.970Z,64.80
2018-09-08T14:18:10.486Z,64.70
2018-09-08T14:20:38.947Z,64.60
2018-09-08T14:23:07.562Z,64.40
2018-09-08T14:25:36.116Z,64.00
2018-09-08T14:28:04.578Z,62.40
2018-09-08T14:30:33.051Z,61.70
2018-09-08T14:33:01.510Z,60.80
2018-09-08T14:35:29.959Z,61.10
2018-09-08T14:37:58.451Z,62.30
2018-09-08T14:40:26.954Z,62.50
2018-09-08T14:42:55.586Z,63.40
2018-09-08T14:45:24.038Z,62.50
2018-09-08T14:47:52.645Z,62.70
2018-09-08T14:50:21.581Z,63.20
2018-09-08T14:52:50.090Z,63.70
2018-09-08T14:55:18.522Z,63.50
2018-09-08T14:57:47.016Z,64.50
2018-09-08T15:00:15.463Z,64.70
2018-09-08T15:02:44.017Z,64.80
2018-09-08T15:05:12.427Z,65.00
2018-09-08T15:07:40.886Z,65.20
2018-09-08T15:10:09.302Z,64.60
2018-09-08T15:12:37.851Z,63.70
2018-09-08T15:15:06.834Z,63.50
2018-09-08T15:17:35.391Z,64.20
2018-09-08T15:20:03.838Z,62.10
2018-09-08T15:22:32.405Z,61.90
2018-09-08T15:25:00.830Z,62.40
2018-09-08T15:27:29.298Z,63.20
2018-09-08T15:29:57.721Z,63.40
2018-09-08T15:32:26.199Z,63.50
2018-09-08T15:34:54.668Z,63.80
2018-09-08T15:37:23.104Z,64.30
2018-09-08T15:39:51.603Z,64.70
2018-09-08T15:42:20.067Z,64.90
2018-09-08T15:44:48.511Z,65.70
2018-09-08T15:47:16.935Z,65.10
2018-09-08T15:49:45.432Z,66.00
2018-09-08T15:52:13.897Z,65.60
2018-09-08T15:54:42.429Z,65.60
2018-09-08T15:57:10.905Z,65.70
2018-09-08T15:59:39.367Z,65.70
2018-09-08T16:02:07.851Z,65.80
2018-09-08T16:04:36.429Z,66.00
2018-09-08T16:07:04.875Z,66.00
2018-09-08T16:09:33.342Z,66.50
2018-09-08T16:12:01.815Z,67.10
2018-09-08T16:14:30.380Z,67.10
2018-09-08T16:16:58.769Z,67.30
2018-09-08T16:19:27.217Z,67.90
2018-09-08T16:21:55.631Z,67.80
2018-09-08T16:24:24.163Z,67.80
2018-09-08T16:26:52.597Z,67.80
2018-09-08T16:29:21.075Z,67.60
2018-09-08T16:31:49.507Z,67.30
2018-09-08T16:34:18.063Z,67.10
2018-09-08T16:36:46.482Z,67.10
2018-09-08T16:39:14.951Z,67.20
2018-09-08T16:41:43.455Z,67.20
2018-09-08T16:44:11.987Z,67.40
2018-09-08T16:46:40.385Z,67.90
2018-09-08T16:49:08.826Z,68.10
2018-09-08T16:51:37.268Z,68.30
2018-09-08T16:54:06.637Z,68.20
2018-09-08T16:56:35.093Z,68.10
2018-09-08T16:59:03.550Z,68.20
2018-09-08T17:01:31.970Z,68.50
2018-09-08T17:04:00.437Z,68.50
2018-09-08T17:06:28.929Z,68.10
2018-09-08T17:08:57.355Z,68.00
2018-09-08T17:11:25.770Z,68.00
2018-09-08T17:13:54.262Z,68.30
2018-09-08T17:16:22.687Z,69.70
2018-09-08T17:18:51.135Z,69.00
2018-09-08T17:21:19.553Z,68.90
2018-09-08T17:23:48.082Z,69.20
2018-09-08T17:26:16.554Z,69.00
2018-09-08T17:28:45.050Z,69.30
2018-09-08T17:31:13.798Z,69.50
2018-09-08T17:33:42.352Z,69.50
2018-09-08T17:36:10.790Z,70.00
2018-09-08T17:38:39.250Z,69.60
2018-09-08T17:41:07.785Z,69.50
2018-09-08T17:43:36.235Z,69.60
2018-09-08T17:46:04.882Z,69.40
2018-09-08T17:48:33.318Z,69.80
2018-09-08T17:51:01.737Z,69.90
2018-09-08T17:53:30.221Z,70.10
2018-09-08T17:55:58.708Z,69.80
2018-09-08T17:58:27.282Z,69.90
2018-09-08T18:00:55.747Z,70.00
2018-09-08T18:03:24.223Z,70.00
2018-09-08T18:05:52.688Z,70.20
2018-09-08T18:08:25.325Z,70.80
2018-09-08T18:10:54.255Z,70.50
2018-09-08T18:13:23.414Z,70.80
2018-09-08T18:15:52.044Z,71.00
2018-09-08T18:18:20.894Z,71.00
2018-09-08T18:20:49.334Z,71.10
2018-09-08T18:23:17.830Z,71.20
2018-09-08T18:25:46.316Z,71.10
2018-09-08T18:28:14.771Z,71.20
2018-09-08T18:30:43.247Z,71.30
2018-09-08T18:33:11.763Z,71.70
2018-09-08T18:35:40.306Z,70.90
2018-09-08T18:38:08.821Z,71.80
2018-09-08T18:40:37.316Z,72.40
2018-09-08T18:43:05.890Z,72.60
2018-09-08T18:45:34.366Z,72.80
2018-09-08T18:48:02.961Z,73.00
2018-09-08T18:50:31.445Z,73.30
2018-09-08T18:52:59.947Z,73.50
2018-09-08T18:55:28.430Z,73.80
2018-09-08T18:57:56.877Z,74.00
2018-09-08T19:00:25.334Z,74.20
2018-09-08T19:02:53.797Z,74.40
2018-09-08T19:05:22.256Z,74.70
2018-09-08T19:07:50.718Z,75.10
2018-09-08T19:10:19.183Z,75.20
2018-09-08T19:12:47.745Z,75.30
2018-09-08T19:15:17.321Z,75.40
2018-09-08T19:17:46.093Z,75.60
2018-09-08T19:20:19.732Z,75.70
2018-09-08T19:22:48.251Z,75.90
2018-09-08T19:25:16.668Z,75.90
2018-09-08T19:27:45.112Z,76.00
2018-09-08T19:30:13.607Z,75.80
2018-09-08T19:32:42.123Z,75.80
2018-09-08T19:35:15.861Z,75.60
2018-09-08T19:37:44.323Z,75.60
2018-09-08T19:40:18.082Z,75.80
2018-09-08T19:42:46.571Z,76.20
2018-09-08T19:45:15.015Z,76.30
2018-09-08T19:47:48.910Z,76.90
2018-09-08T19:50:17.355Z,77.30
2018-09-08T19:52:51.254Z,77.30
2018-09-08T19:55:20.183Z,76.90
2018-09-08T19:57:53.917Z,76.70
2018-09-08T20:00:22.357Z,76.70
2018-09-08T20:02:50.866Z,76.50
2018-09-08T20:05:19.281Z,76.50
2018-09-08T20:07:47.714Z,77.10
2018-09-08T20:10:16.218Z,76.50
2018-09-08T20:12:44.711Z,76.60
2018-09-08T20:15:13.127Z,76.60
2018-09-08T20:17:41.583Z,77.40
2018-09-08T20:20:10.000Z,77.20
2018-09-08T20:22:39.153Z,77.30
2018-09-08T20:25:07.713Z,77.60
2018-09-08T20:27:36.146Z,77.90
2018-09-08T20:30:04.632Z,77.90
2018-09-08T20:32:33.166Z,78.10
2018-09-08T20:35:01.635Z,78.40
2018-09-08T20:37:30.062Z,78.50
2018-09-08T20:39:58.470Z,78.70
2018-09-08T20:42:26.983Z,78.80
2018-09-08T20:44:55.422Z,78.90
2018-09-08T20:47:23.838Z,79.20
2018-09-08T20:49:53.294Z,79.70
2018-09-08T20:52:21.788Z,79.80
2018-09-08T20:54:50.267Z,79.80
2018-09-08T20:57:18.670Z,79.70
2018-09-08T20:59:47.089Z,79.90
2018-09-08T21:02:15.558Z,80.00
2018-09-08T21:04:50.595Z,80.30
2018-09-08T21:07:19.095Z,81.30
2018-09-08T21:09:47.711Z,80.70
2018-09-08T21:12:17.855Z,81.20
2018-09-08T21:14:46.832Z,81.40
2018-09-08T21:17:16.153Z,81.70
2018-09-08T21:19:44.620Z,81.80
2018-09-08T21:22:13.088Z,82.00
2018-09-08T21:24:42.586Z,81.90
2018-09-08T21:27:11.265Z,81.90
2018-09-08T21:29:39.760Z,82.10
2018-09-08T21:32:08.329Z,82.30
2018-09-08T21:34:38.554Z,82.30
2018-09-08T21:37:07.351Z,82.40
2018-09-08T21:39:35.975Z,82.40
2018-09-08T21:42:04.442Z,82.60
2018-09-08T21:44:32.991Z,82.80
2018-09-08T21:47:05.911Z,83.10
2018-09-08T21:49:31.346Z,83.00
2018-09-08T21:51:59.789Z,82.90
2018-09-08T21:54:28.358Z,82.90
2018-09-08T21:56:56.937Z,82.70
2018-09-08T21:59:25.421Z,82.60
2018-09-08T22:01:53.887Z,82.50
2018-09-08T22:04:22.349Z,82.60
2018-09-08T22:06:50.851Z,82.70
2018-09-08T22:09:19.470Z,83.00
2018-09-08T22:11:48.145Z,83.20
2018-09-08T22:14:16.759Z,83.40
2018-09-08T22:16:45.330Z,83.50
2018-09-08T22:19:13.916Z,83.90
2018-09-08T22:21:42.862Z,83.80
2018-09-08T22:24:12.964Z,83.90
2018-09-08T22:26:41.833Z,84.00
2018-09-08T22:29:11.950Z,84.20
2018-09-08T22:31:41.939Z,84.50
2018-09-08T22:34:10.549Z,84.60
2018-09-08T22:36:39.007Z,84.90
2018-09-08T22:39:08.241Z,85.00
2018-09-08T22:41:36.670Z,85.10
2018-09-08T22:44:05.131Z,85.40
2018-09-08T22:46:33.541Z,85.80
2018-09-08T22:49:01.973Z,85.80
2018-09-08T22:51:30.424Z,85.80
2018-09-08T22:53:58.945Z,85.70
2018-09-08T22:56:27.375Z,85.80
2018-09-08T22:58:55.838Z,85.90
2018-09-08T23:01:24.270Z,86.10
2018-09-08T23:03:52.772Z,86.40
2018-09-08T23:06:21.181Z,86.80
2018-09-08T23:08:49.606Z,87.00
2018-09-08T23:11:18.025Z,87.10
2018-09-08T23:13:46.507Z,87.10
2018-09-08T23:16:14.945Z,87.70
2018-09-08T23:18:43.358Z,87.40
2018-09-08T23:21:11.825Z,87.40
2018-09-08T23:23:40.328Z,87.30
2018-09-08T23:26:08.864Z,87.40
2018-09-08T23:28:37.339Z,87.60
2018-09-08T23:31:05.778Z,87.50
2018-09-08T23:33:34.346Z,87.60
2018-09-08T23:36:02.969Z,87.80
2018-09-08T23:38:31.406Z,88.00
2018-09-08T23:40:59.859Z,88.00
2018-09-08T23:43:28.409Z,87.80
2018-09-08T23:45:56.824Z,88.30
2018-09-08T23:48:25.277Z,88.00
2018-09-08T23:50:53.696Z,87.90
2018-09-08T23:53:22.182Z,87.90
2018-09-08T23:55:50.625Z,87.80
2018-09-08T23:58:19.050Z,87.80
